sensor_id;sensor_type;location;lat;lon;timestamp;temperature;humidity
8487;DHT22;4280;50.534;8.708;2022-12-17T00:02:39;-7.50;1.00
8487;DHT22;4280;50.534;8.708;2022-12-17T00:05:21;-7.60;1.00
8487;DHT22;4280;50.534;8.708;2022-12-17T00:08:07;-8.00;1.00
8487;DHT22;4280;50.534;8.708;2022-12-17T00:11:01;-8.20;1.00
8487;DHT22;4280;50.534;8.708;2022-12-17T00:13:44;-8.30;1.00
8487;DHT22;4280;50.534;8.708;2022-12-17T00:16:26;-8.40;1.00
8487;DHT22;4280;50.534;8.708;2022-12-17T00:19:08;-8.20;1.00
8487;DHT22;4280;50.534;8.708;2022-12-17T00:21:51;-8.00;1.00
8487;DHT22;4280;50.534;8.708;2022-12-17T00:24:36;-7.80;1.00
8487;DHT22;4280;50.534;8.708;2022-12-17T00:27:18;-7.70;1.00
8487;DHT22;4280;50.534;8.708;2022-12-17T00:30:00;-7.70;1.00
8487;DHT22;4280;50.534;8.708;2022-12-17T00:32:43;-7.60;1.00
8487;DHT22;4280;50.534;8.708;2022-12-17T00:35:26;-7.60;1.00
8487;DHT22;4280;50.534;8.708;2022-12-17T00:38:13;-7.60;1.00
8487;DHT22;4280;50.534;8.708;2022-12-17T00:41:11;-7.60;1.00
8487;DHT22;4280;50.534;8.708;2022-12-17T00:43:55;-7.70;1.00
8487;DHT22;4280;50.534;8.708;2022-12-17T00:46:37;-7.70;1.00
8487;DHT22;4280;50.534;8.708;2022-12-17T00:49:19;-7.70;1.00
8487;DHT22;4280;50.534;8.708;2022-12-17T00:52:02;-7.70;1.00
8487;DHT22;4280;50.534;8.708;2022-12-17T00:54:46;-7.80;1.00
8487;DHT22;4280;50.534;8.708;2022-12-17T00:57:30;-7.80;1.00
8487;DHT22;4280;50.534;8.708;2022-12-17T01:00:14;-7.90;1.00
8487;DHT22;4280;50.534;8.708;2022-12-17T01:03:04;-8.00;1.00
8487;DHT22;4280;50.534;8.708;2022-12-17T01:05:48;-8.10;1.00
8487;DHT22;4280;50.534;8.708;2022-12-17T01:08:30;-8.00;1.00
8487;DHT22;4280;50.534;8.708;2022-12-17T01:11:12;-7.90;1.00
8487;DHT22;4280;50.534;8.708;2022-12-17T01:13:57;-7.90;1.00
8487;DHT22;4280;50.534;8.708;2022-12-17T01:16:40;-7.80;1.00
8487;DHT22;4280;50.534;8.708;2022-12-17T01:19:22;-7.80;1.00
8487;DHT22;4280;50.534;8.708;2022-12-17T01:22:05;-7.80;1.00
8487;DHT22;4280;50.534;8.708;2022-12-17T01:24:51;-7.80;1.00
8487;DHT22;4280;50.534;8.708;2022-12-17T01:27:33;-7.90;1.00
8487;DHT22;4280;50.534;8.708;2022-12-17T01:30:18;-8.10;1.00
8487;DHT22;4280;50.534;8.708;2022-12-17T01:33:02;-8.40;1.00
8487;DHT22;4280;50.534;8.708;2022-12-17T01:35:45;-8.50;1.00
8487;DHT22;4280;50.534;8.708;2022-12-17T01:38:27;-8.50;1.00
8487;DHT22;4280;50.534;8.708;2022-12-17T01:41:09;-8.40;1.00
8487;DHT22;4280;50.534;8.708;2022-12-17T01:43:52;-8.20;1.00
8487;DHT22;4280;50.534;8.708;2022-12-17T01:46:37;-8.10;1.00
8487;DHT22;4280;50.534;8.708;2022-12-17T01:49:23;-8.00;1.00
8487;DHT22;4280;50.534;8.708;2022-12-17T01:52:06;-8.00;1.00
8487;DHT22;4280;50.534;8.708;2022-12-17T01:54:49;-8.20;1.00
8487;DHT22;4280;50.534;8.708;2022-12-17T01:57:31;-8.30;1.00
8487;DHT22;4280;50.534;8.708;2022-12-17T02:00:14;-8.40;1.00
8487;DHT22;4280;50.534;8.708;2022-12-17T02:03:00;-8.30;1.00
8487;DHT22;4280;50.534;8.708;2022-12-17T02:05:43;-8.30;1.00
8487;DHT22;4280;50.534;8.708;2022-12-17T02:08:30;-8.30;1.00
8487;DHT22;4280;50.534;8.708;2022-12-17T02:11:19;-8.20;1.00
8487;DHT22;4280;50.534;8.708;2022-12-17T02:14:06;-8.30;1.00
8487;DHT22;4280;50.534;8.708;2022-12-17T02:16:53;-8.30;1.00
8487;DHT22;4280;50.534;8.708;2022-12-17T02:19:43;-8.30;1.00
8487;DHT22;4280;50.534;8.708;2022-12-17T02:22:35;-8.30;1.00
8487;DHT22;4280;50.534;8.708;2022-12-17T02:25:31;-8.30;1.00
8487;DHT22;4280;50.534;8.708;2022-12-17T02:28:21;-8.40;1.00
8487;DHT22;4280;50.534;8.708;2022-12-17T02:31:04;-8.20;1.00
8487;DHT22;4280;50.534;8.708;2022-12-17T02:33:47;-8.10;1.00
8487;DHT22;4280;50.534;8.708;2022-12-17T02:36:32;-8.20;1.00
8487;DHT22;4280;50.534;8.708;2022-12-17T02:39:15;-8.10;1.00
8487;DHT22;4280;50.534;8.708;2022-12-17T02:42:09;-8.10;1.00
8487;DHT22;4280;50.534;8.708;2022-12-17T02:44:56;-8.00;1.00
8487;DHT22;4280;50.534;8.708;2022-12-17T02:47:38;-7.90;1.00
8487;DHT22;4280;50.534;8.708;2022-12-17T02:50:21;-7.80;1.00
8487;DHT22;4280;50.534;8.708;2022-12-17T02:53:04;-7.80;1.00
8487;DHT22;4280;50.534;8.708;2022-12-17T02:55:46;-7.90;1.00
8487;DHT22;4280;50.534;8.708;2022-12-17T02:58:31;-7.90;1.00
8487;DHT22;4280;50.534;8.708;2022-12-17T03:01:16;-8.00;1.00
8487;DHT22;4280;50.534;8.708;2022-12-17T03:04:01;-8.00;1.00
8487;DHT22;4280;50.534;8.708;2022-12-17T03:06:53;-8.00;1.00
8487;DHT22;4280;50.534;8.708;2022-12-17T03:09:40;-8.00;1.00
8487;DHT22;4280;50.534;8.708;2022-12-17T03:12:24;-8.00;1.00
8487;DHT22;4280;50.534;8.708;2022-12-17T03:15:06;-8.00;1.00
8487;DHT22;4280;50.534;8.708;2022-12-17T03:17:52;-8.00;1.00
8487;DHT22;4280;50.534;8.708;2022-12-17T03:20:34;-8.10;1.00
8487;DHT22;4280;50.534;8.708;2022-12-17T03:23:17;-8.10;1.00
8487;DHT22;4280;50.534;8.708;2022-12-17T03:26:00;-8.20;1.00
8487;DHT22;4280;50.534;8.708;2022-12-17T03:28:43;-8.20;1.00
8487;DHT22;4280;50.534;8.708;2022-12-17T03:31:25;-8.20;1.00
8487;DHT22;4280;50.534;8.708;2022-12-17T03:34:10;-8.20;1.00
8487;DHT22;4280;50.534;8.708;2022-12-17T03:36:52;-8.20;1.00
8487;DHT22;4280;50.534;8.708;2022-12-17T03:39:50;-8.30;1.00
8487;DHT22;4280;50.534;8.708;2022-12-17T03:42:38;-8.30;1.00
8487;DHT22;4280;50.534;8.708;2022-12-17T03:45:20;-8.30;1.00
8487;DHT22;4280;50.534;8.708;2022-12-17T03:48:03;-8.30;1.00
8487;DHT22;4280;50.534;8.708;2022-12-17T03:50:49;-8.20;1.00
8487;DHT22;4280;50.534;8.708;2022-12-17T03:53:32;-8.20;1.00
8487;DHT22;4280;50.534;8.708;2022-12-17T03:56:15;-8.20;1.00
8487;DHT22;4280;50.534;8.708;2022-12-17T03:58:57;-8.10;1.00
8487;DHT22;4280;50.534;8.708;2022-12-17T04:01:40;-7.90;1.00
8487;DHT22;4280;50.534;8.708;2022-12-17T04:04:22;-7.90;1.00
8487;DHT22;4280;50.534;8.708;2022-12-17T04:09:49;-7.80;1.00
8487;DHT22;4280;50.534;8.708;2022-12-17T04:12:31;-7.70;1.00
8487;DHT22;4280;50.534;8.708;2022-12-17T04:15:13;-7.60;1.00
8487;DHT22;4280;50.534;8.708;2022-12-17T04:17:56;-7.70;1.00
8487;DHT22;4280;50.534;8.708;2022-12-17T04:20:38;-7.60;1.00
8487;DHT22;4280;50.534;8.708;2022-12-17T04:23:20;-7.60;1.00
8487;DHT22;4280;50.534;8.708;2022-12-17T04:26:05;-7.50;1.00
8487;DHT22;4280;50.534;8.708;2022-12-17T04:28:48;-7.40;1.00
8487;DHT22;4280;50.534;8.708;2022-12-17T04:31:30;-7.40;1.00
8487;DHT22;4280;50.534;8.708;2022-12-17T04:34:13;-7.30;1.00
8487;DHT22;4280;50.534;8.708;2022-12-17T04:36:55;-7.30;1.00
8487;DHT22;4280;50.534;8.708;2022-12-17T04:39:37;-7.30;1.00
8487;DHT22;4280;50.534;8.708;2022-12-17T04:42:22;-7.20;1.00
8487;DHT22;4280;50.534;8.708;2022-12-17T04:45:05;-7.30;1.00
8487;DHT22;4280;50.534;8.708;2022-12-17T04:47:48;-7.20;1.00
8487;DHT22;4280;50.534;8.708;2022-12-17T04:50:30;-7.30;1.00
8487;DHT22;4280;50.534;8.708;2022-12-17T04:53:12;-7.20;1.00
8487;DHT22;4280;50.534;8.708;2022-12-17T04:55:55;-7.30;1.00
8487;DHT22;4280;50.534;8.708;2022-12-17T04:58:40;-7.30;1.00
8487;DHT22;4280;50.534;8.708;2022-12-17T05:01:23;-7.10;1.00
8487;DHT22;4280;50.534;8.708;2022-12-17T05:04:06;-6.80;1.00
8487;DHT22;4280;50.534;8.708;2022-12-17T05:06:48;-6.70;1.00
8487;DHT22;4280;50.534;8.708;2022-12-17T05:09:30;-6.70;1.00
8487;DHT22;4280;50.534;8.708;2022-12-17T05:12:13;-6.70;1.00
8487;DHT22;4280;50.534;8.708;2022-12-17T05:14:58;-6.60;1.00
8487;DHT22;4280;50.534;8.708;2022-12-17T05:17:40;-6.50;1.00
8487;DHT22;4280;50.534;8.708;2022-12-17T05:20:22;-6.40;1.00
8487;DHT22;4280;50.534;8.708;2022-12-17T05:23:05;-6.60;1.00
8487;DHT22;4280;50.534;8.708;2022-12-17T05:25:47;-6.80;1.00
8487;DHT22;4280;50.534;8.708;2022-12-17T05:28:30;-6.80;1.00
8487;DHT22;4280;50.534;8.708;2022-12-17T05:31:15;-6.90;1.00
8487;DHT22;4280;50.534;8.708;2022-12-17T05:33:57;-6.80;1.00
8487;DHT22;4280;50.534;8.708;2022-12-17T05:36:54;-6.70;1.00
8487;DHT22;4280;50.534;8.708;2022-12-17T05:39:36;-6.80;1.00
8487;DHT22;4280;50.534;8.708;2022-12-17T05:42:19;-6.80;1.00
8487;DHT22;4280;50.534;8.708;2022-12-17T05:45:01;-6.70;1.00
8487;DHT22;4280;50.534;8.708;2022-12-17T05:48:01;-6.40;1.00
8487;DHT22;4280;50.534;8.708;2022-12-17T05:50:47;-6.40;1.00
8487;DHT22;4280;50.534;8.708;2022-12-17T05:53:30;-6.40;1.00
8487;DHT22;4280;50.534;8.708;2022-12-17T05:56:13;-6.40;1.00
8487;DHT22;4280;50.534;8.708;2022-12-17T05:58:55;-6.40;1.00
8487;DHT22;4280;50.534;8.708;2022-12-17T06:01:37;-6.50;1.00
8487;DHT22;4280;50.534;8.708;2022-12-17T06:04:22;-6.60;1.00
8487;DHT22;4280;50.534;8.708;2022-12-17T06:07:04;-6.50;1.00
8487;DHT22;4280;50.534;8.708;2022-12-17T06:09:47;-6.50;1.00
8487;DHT22;4280;50.534;8.708;2022-12-17T06:12:29;-6.50;1.00
8487;DHT22;4280;50.534;8.708;2022-12-17T06:15:12;-6.50;1.00
8487;DHT22;4280;50.534;8.708;2022-12-17T06:17:55;-6.50;1.00
8487;DHT22;4280;50.534;8.708;2022-12-17T06:20:43;-6.50;1.00
8487;DHT22;4280;50.534;8.708;2022-12-17T06:23:25;-6.50;1.00
8487;DHT22;4280;50.534;8.708;2022-12-17T06:26:07;-6.40;1.00
8487;DHT22;4280;50.534;8.708;2022-12-17T06:28:50;-6.50;1.00
8487;DHT22;4280;50.534;8.708;2022-12-17T06:31:34;-6.40;1.00
8487;DHT22;4280;50.534;8.708;2022-12-17T06:34:16;-6.60;1.00
8487;DHT22;4280;50.534;8.708;2022-12-17T06:37:01;-6.50;1.00
8487;DHT22;4280;50.534;8.708;2022-12-17T06:39:43;-6.50;1.00
8487;DHT22;4280;50.534;8.708;2022-12-17T06:42:25;-6.40;1.00
8487;DHT22;4280;50.534;8.708;2022-12-17T06:45:08;-6.50;1.00
8487;DHT22;4280;50.534;8.708;2022-12-17T06:47:50;-6.30;1.00
8487;DHT22;4280;50.534;8.708;2022-12-17T06:50:33;-6.40;4.10
8487;DHT22;4280;50.534;8.708;2022-12-17T06:53:20;-6.40;4.80
8487;DHT22;4280;50.534;8.708;2022-12-17T06:56:03;-6.40;4.90
8487;DHT22;4280;50.534;8.708;2022-12-17T06:58:45;-6.40;6.50
8487;DHT22;4280;50.534;8.708;2022-12-17T07:01:27;-6.50;7.80
8487;DHT22;4280;50.534;8.708;2022-12-17T07:04:10;-6.50;11.10
8487;DHT22;4280;50.534;8.708;2022-12-17T07:06:52;-6.40;14.10
8487;DHT22;4280;50.534;8.708;2022-12-17T07:09:37;-6.40;15.20
8487;DHT22;4280;50.534;8.708;2022-12-17T07:12:20;-6.40;14.70
8487;DHT22;4280;50.534;8.708;2022-12-17T07:15:02;-6.40;15.20
8487;DHT22;4280;50.534;8.708;2022-12-17T07:17:52;-6.40;18.40
8487;DHT22;4280;50.534;8.708;2022-12-17T07:20:35;-6.40;18.90
8487;DHT22;4280;50.534;8.708;2022-12-17T07:23:18;-6.30;19.80
8487;DHT22;4280;50.534;8.708;2022-12-17T07:26:03;-6.30;22.40
8487;DHT22;4280;50.534;8.708;2022-12-17T07:28:45;-6.30;23.50
8487;DHT22;4280;50.534;8.708;2022-12-17T07:31:28;-6.20;28.30
8487;DHT22;4280;50.534;8.708;2022-12-17T07:34:10;-6.30;27.50
8487;DHT22;4280;50.534;8.708;2022-12-17T07:36:52;-6.20;28.30
8487;DHT22;4280;50.534;8.708;2022-12-17T07:39:35;-6.20;27.90
8487;DHT22;4280;50.534;8.708;2022-12-17T07:42:20;-6.20;20.30
8487;DHT22;4280;50.534;8.708;2022-12-17T07:45:02;-6.20;21.40
8487;DHT22;4280;50.534;8.708;2022-12-17T07:47:49;-6.10;25.10
8487;DHT22;4280;50.534;8.708;2022-12-17T07:50:32;-6.10;26.50
8487;DHT22;4280;50.534;8.708;2022-12-17T07:53:14;-6.00;27.60
8487;DHT22;4280;50.534;8.708;2022-12-17T07:55:57;-5.90;28.60
8487;DHT22;4280;50.534;8.708;2022-12-17T07:58:42;-5.80;29.00
8487;DHT22;4280;50.534;8.708;2022-12-17T08:07:28;-6.00;17.70
8487;DHT22;4280;50.534;8.708;2022-12-17T08:10:20;-6.00;15.80
8487;DHT22;4280;50.534;8.708;2022-12-17T08:13:03;-6.00;14.70
8487;DHT22;4280;50.534;8.708;2022-12-17T08:15:50;-6.00;13.40
8487;DHT22;4280;50.534;8.708;2022-12-17T08:18:34;-5.90;14.30
8487;DHT22;4280;50.534;8.708;2022-12-17T08:21:16;-5.80;13.70
8487;DHT22;4280;50.534;8.708;2022-12-17T08:24:05;-5.80;12.60
8487;DHT22;4280;50.534;8.708;2022-12-17T08:26:47;-5.90;8.90
8487;DHT22;4280;50.534;8.708;2022-12-17T08:29:31;-5.90;5.80
8487;DHT22;4280;50.534;8.708;2022-12-17T08:32:16;-5.80;4.70
8487;DHT22;4280;50.534;8.708;2022-12-17T08:34:58;-5.80;1.00
8487;DHT22;4280;50.534;8.708;2022-12-17T08:37:41;-5.80;1.00
8487;DHT22;4280;50.534;8.708;2022-12-17T08:40:23;-5.70;1.00
8487;DHT22;4280;50.534;8.708;2022-12-17T08:43:06;-5.70;1.00
8487;DHT22;4280;50.534;8.708;2022-12-17T08:45:49;-5.70;1.00
8487;DHT22;4280;50.534;8.708;2022-12-17T08:48:43;-5.80;1.00
8487;DHT22;4280;50.534;8.708;2022-12-17T08:51:25;-5.80;1.00
8487;DHT22;4280;50.534;8.708;2022-12-17T08:54:08;-5.80;1.00
8487;DHT22;4280;50.534;8.708;2022-12-17T08:56:50;-5.70;1.00
8487;DHT22;4280;50.534;8.708;2022-12-17T08:59:33;-5.70;1.00
8487;DHT22;4280;50.534;8.708;2022-12-17T09:02:18;-5.60;1.00
8487;DHT22;4280;50.534;8.708;2022-12-17T09:05:09;-5.60;1.00
8487;DHT22;4280;50.534;8.708;2022-12-17T09:07:56;-5.60;1.00
8487;DHT22;4280;50.534;8.708;2022-12-17T09:10:40;-5.50;1.00
8487;DHT22;4280;50.534;8.708;2022-12-17T09:13:22;-5.60;1.00
8487;DHT22;4280;50.534;8.708;2022-12-17T09:16:05;-5.50;1.00
8487;DHT22;4280;50.534;8.708;2022-12-17T09:18:47;-5.50;1.00
8487;DHT22;4280;50.534;8.708;2022-12-17T09:21:34;-5.40;1.00
8487;DHT22;4280;50.534;8.708;2022-12-17T09:24:17;-5.30;1.00
8487;DHT22;4280;50.534;8.708;2022-12-17T09:27:00;-5.40;1.00
8487;DHT22;4280;50.534;8.708;2022-12-17T09:29:42;-5.30;1.00
8487;DHT22;4280;50.534;8.708;2022-12-17T09:32:25;-5.30;1.00
8487;DHT22;4280;50.534;8.708;2022-12-17T09:35:08;-5.20;1.00
8487;DHT22;4280;50.534;8.708;2022-12-17T09:37:54;-5.10;1.00
8487;DHT22;4280;50.534;8.708;2022-12-17T09:40:44;-5.10;1.00
8487;DHT22;4280;50.534;8.708;2022-12-17T09:43:28;-5.50;1.00
8487;DHT22;4280;50.534;8.708;2022-12-17T09:46:16;-5.40;1.00
8487;DHT22;4280;50.534;8.708;2022-12-17T09:49:04;-5.40;1.00
8487;DHT22;4280;50.534;8.708;2022-12-17T09:51:53;-5.50;1.00
8487;DHT22;4280;50.534;8.708;2022-12-17T09:54:38;-5.30;1.00
8487;DHT22;4280;50.534;8.708;2022-12-17T09:57:27;-5.10;1.00
8487;DHT22;4280;50.534;8.708;2022-12-17T10:00:13;-5.00;1.00
8487;DHT22;4280;50.534;8.708;2022-12-17T10:02:56;-5.00;1.00
8487;DHT22;4280;50.534;8.708;2022-12-17T10:05:53;-4.80;1.00
8487;DHT22;4280;50.534;8.708;2022-12-17T10:08:37;-4.70;1.00
8487;DHT22;4280;50.534;8.708;2022-12-17T10:11:23;-4.80;1.00
8487;DHT22;4280;50.534;8.708;2022-12-17T10:14:11;-4.70;1.00
8487;DHT22;4280;50.534;8.708;2022-12-17T10:16:58;-4.60;1.00
8487;DHT22;4280;50.534;8.708;2022-12-17T10:19:41;-4.50;1.00
8487;DHT22;4280;50.534;8.708;2022-12-17T10:22:30;-4.50;1.00
8487;DHT22;4280;50.534;8.708;2022-12-17T10:25:26;-4.50;1.00
8487;DHT22;4280;50.534;8.708;2022-12-17T10:28:15;-4.40;1.00
8487;DHT22;4280;50.534;8.708;2022-12-17T10:30:58;-4.30;1.00
8487;DHT22;4280;50.534;8.708;2022-12-17T10:33:41;-4.30;1.00
8487;DHT22;4280;50.534;8.708;2022-12-17T10:36:25;-4.40;1.00
8487;DHT22;4280;50.534;8.708;2022-12-17T10:39:16;-4.30;1.00
8487;DHT22;4280;50.534;8.708;2022-12-17T10:41:59;-4.40;1.00
8487;DHT22;4280;50.534;8.708;2022-12-17T10:44:45;-4.40;1.00
8487;DHT22;4280;50.534;8.708;2022-12-17T10:47:27;-4.40;1.00
8487;DHT22;4280;50.534;8.708;2022-12-17T10:50:12;-4.30;1.00
8487;DHT22;4280;50.534;8.708;2022-12-17T10:52:55;-4.50;1.00
8487;DHT22;4280;50.534;8.708;2022-12-17T10:55:46;-4.40;1.00
8487;DHT22;4280;50.534;8.708;2022-12-17T10:58:29;-4.30;1.00
8487;DHT22;4280;50.534;8.708;2022-12-17T11:01:20;-4.30;1.00
8487;DHT22;4280;50.534;8.708;2022-12-17T11:04:17;-4.20;1.00
8487;DHT22;4280;50.534;8.708;2022-12-17T11:07:03;-4.20;1.00
8487;DHT22;4280;50.534;8.708;2022-12-17T11:09:47;-4.20;1.00
8487;DHT22;4280;50.534;8.708;2022-12-17T11:12:38;-4.20;1.00
8487;DHT22;4280;50.534;8.708;2022-12-17T11:15:25;-4.20;1.00
8487;DHT22;4280;50.534;8.708;2022-12-17T11:18:14;-4.00;1.00
8487;DHT22;4280;50.534;8.708;2022-12-17T11:21:01;-4.00;1.00
8487;DHT22;4280;50.534;8.708;2022-12-17T11:23:46;-4.30;1.00
8487;DHT22;4280;50.534;8.708;2022-12-17T11:26:35;-4.20;1.00
8487;DHT22;4280;50.534;8.708;2022-12-17T11:29:18;-4.20;1.00
8487;DHT22;4280;50.534;8.708;2022-12-17T11:35:32;-4.10;1.00
8487;DHT22;4280;50.534;8.708;2022-12-17T11:38:25;-4.30;1.00
8487;DHT22;4280;50.534;8.708;2022-12-17T11:41:14;-4.30;1.00
8487;DHT22;4280;50.534;8.708;2022-12-17T11:44:00;-4.30;1.00
8487;DHT22;4280;50.534;8.708;2022-12-17T11:46:49;-4.20;1.00
8487;DHT22;4280;50.534;8.708;2022-12-17T11:49:38;-4.50;1.00
8487;DHT22;4280;50.534;8.708;2022-12-17T11:52:29;-4.40;1.00
8487;DHT22;4280;50.534;8.708;2022-12-17T11:55:16;-4.30;1.00
8487;DHT22;4280;50.534;8.708;2022-12-17T11:58:03;-4.10;1.00
8487;DHT22;4280;50.534;8.708;2022-12-17T12:00:49;-4.10;1.00
8487;DHT22;4280;50.534;8.708;2022-12-17T12:03:38;-4.20;1.00
8487;DHT22;4280;50.534;8.708;2022-12-17T12:06:32;-4.00;1.00
8487;DHT22;4280;50.534;8.708;2022-12-17T12:09:30;-4.00;1.00
8487;DHT22;4280;50.534;8.708;2022-12-17T12:12:19;-4.10;1.00
8487;DHT22;4280;50.534;8.708;2022-12-17T12:15:05;-4.30;1.00
8487;DHT22;4280;50.534;8.708;2022-12-17T12:17:56;-4.10;1.00
8487;DHT22;4280;50.534;8.708;2022-12-17T12:20:51;-4.00;1.00
8487;DHT22;4280;50.534;8.708;2022-12-17T12:23:58;-4.10;1.00
8487;DHT22;4280;50.534;8.708;2022-12-17T12:26:51;-3.90;1.00
8487;DHT22;4280;50.534;8.708;2022-12-17T12:29:41;-3.90;1.00
8487;DHT22;4280;50.534;8.708;2022-12-17T12:32:38;-3.70;1.00
8487;DHT22;4280;50.534;8.708;2022-12-17T12:35:27;-3.70;1.00
8487;DHT22;4280;50.534;8.708;2022-12-17T12:38:15;-4.10;1.00
8487;DHT22;4280;50.534;8.708;2022-12-17T12:41:04;-4.20;1.00
8487;DHT22;4280;50.534;8.708;2022-12-17T12:43:55;-4.10;1.00
8487;DHT22;4280;50.534;8.708;2022-12-17T12:46:45;-4.10;1.00
8487;DHT22;4280;50.534;8.708;2022-12-17T12:49:31;-4.20;1.00
8487;DHT22;4280;50.534;8.708;2022-12-17T12:52:17;-4.10;1.00
8487;DHT22;4280;50.534;8.708;2022-12-17T12:55:05;-4.00;1.00
8487;DHT22;4280;50.534;8.708;2022-12-17T12:57:55;-4.20;1.00
8487;DHT22;4280;50.534;8.708;2022-12-17T13:00:52;-4.10;1.00
8487;DHT22;4280;50.534;8.708;2022-12-17T13:03:37;-4.10;1.00
8487;DHT22;4280;50.534;8.708;2022-12-17T13:09:28;-4.20;1.00
8487;DHT22;4280;50.534;8.708;2022-12-17T13:15:12;-4.20;1.00
8487;DHT22;4280;50.534;8.708;2022-12-17T13:17:59;-4.10;1.00
8487;DHT22;4280;50.534;8.708;2022-12-17T13:20:35;-4.00;1.00
8487;DHT22;4280;50.534;8.708;2022-12-17T13:23:24;-4.00;1.00
8487;DHT22;4280;50.534;8.708;2022-12-17T13:28:43;-3.90;1.00
8487;DHT22;4280;50.534;8.708;2022-12-17T13:31:19;-3.80;1.00
8487;DHT22;4280;50.534;8.708;2022-12-17T13:34:01;-3.70;1.00
8487;DHT22;4280;50.534;8.708;2022-12-17T13:36:38;-3.70;1.00
8487;DHT22;4280;50.534;8.708;2022-12-17T13:39:18;-3.60;1.00
8487;DHT22;4280;50.534;8.708;2022-12-17T13:41:54;-3.70;1.00
8487;DHT22;4280;50.534;8.708;2022-12-17T13:44:25;-3.80;1.00
8487;DHT22;4280;50.534;8.708;2022-12-17T13:46:57;-3.80;1.00
8487;DHT22;4280;50.534;8.708;2022-12-17T13:49:31;-3.80;1.00
8487;DHT22;4280;50.534;8.708;2022-12-17T13:52:13;-3.80;1.00
8487;DHT22;4280;50.534;8.708;2022-12-17T13:54:46;-3.70;1.00
8487;DHT22;4280;50.534;8.708;2022-12-17T13:57:18;-3.60;1.00
8487;DHT22;4280;50.534;8.708;2022-12-17T13:59:54;-3.60;1.00
8487;DHT22;4280;50.534;8.708;2022-12-17T14:02:28;-3.70;1.00
8487;DHT22;4280;50.534;8.708;2022-12-17T14:05:02;-3.80;1.00
8487;DHT22;4280;50.534;8.708;2022-12-17T14:07:37;-3.80;1.00
8487;DHT22;4280;50.534;8.708;2022-12-17T14:10:12;-3.90;1.00
8487;DHT22;4280;50.534;8.708;2022-12-17T14:12:44;-3.90;1.00
8487;DHT22;4280;50.534;8.708;2022-12-17T14:15:16;-3.90;1.00
8487;DHT22;4280;50.534;8.708;2022-12-17T14:17:50;-3.90;1.00
8487;DHT22;4280;50.534;8.708;2022-12-17T14:20:25;-4.00;1.00
8487;DHT22;4280;50.534;8.708;2022-12-17T14:22:58;-4.00;1.00
8487;DHT22;4280;50.534;8.708;2022-12-17T14:25:29;-4.10;1.00
8487;DHT22;4280;50.534;8.708;2022-12-17T14:28:03;-4.10;1.00
8487;DHT22;4280;50.534;8.708;2022-12-17T14:30:35;-4.20;1.00
8487;DHT22;4280;50.534;8.708;2022-12-17T14:33:23;-4.20;1.00
8487;DHT22;4280;50.534;8.708;2022-12-17T14:36:01;-4.20;1.00
8487;DHT22;4280;50.534;8.708;2022-12-17T14:38:32;-4.30;1.00
8487;DHT22;4280;50.534;8.708;2022-12-17T14:41:05;-4.40;1.00
8487;DHT22;4280;50.534;8.708;2022-12-17T14:43:58;-4.50;1.00
8487;DHT22;4280;50.534;8.708;2022-12-17T14:46:30;-4.50;1.00
8487;DHT22;4280;50.534;8.708;2022-12-17T14:49:02;-4.50;1.00
8487;DHT22;4280;50.534;8.708;2022-12-17T14:51:36;-4.50;1.00
8487;DHT22;4280;50.534;8.708;2022-12-17T14:54:18;-4.50;1.00
8487;DHT22;4280;50.534;8.708;2022-12-17T14:56:52;-4.60;1.00
8487;DHT22;4280;50.534;8.708;2022-12-17T14:59:31;-4.60;1.00
8487;DHT22;4280;50.534;8.708;2022-12-17T15:02:03;-4.50;1.00
8487;DHT22;4280;50.534;8.708;2022-12-17T15:04:34;-4.50;1.00
8487;DHT22;4280;50.534;8.708;2022-12-17T15:07:09;-4.60;1.00
8487;DHT22;4280;50.534;8.708;2022-12-17T15:09:43;-4.60;1.00
8487;DHT22;4280;50.534;8.708;2022-12-17T15:12:13;-4.60;1.00
8487;DHT22;4280;50.534;8.708;2022-12-17T15:14:43;-4.50;1.00
8487;DHT22;4280;50.534;8.708;2022-12-17T15:17:13;-4.50;1.00
8487;DHT22;4280;50.534;8.708;2022-12-17T15:19:43;-4.50;1.00
8487;DHT22;4280;50.534;8.708;2022-12-17T15:22:18;-4.60;1.00
8487;DHT22;4280;50.534;8.708;2022-12-17T15:24:48;-4.60;1.00
8487;DHT22;4280;50.534;8.708;2022-12-17T15:27:18;-4.70;1.00
8487;DHT22;4280;50.534;8.708;2022-12-17T15:29:48;-4.60;1.00
8487;DHT22;4280;50.534;8.708;2022-12-17T15:32:18;-4.60;1.00
8487;DHT22;4280;50.534;8.708;2022-12-17T15:34:50;-4.70;1.00
8487;DHT22;4280;50.534;8.708;2022-12-17T15:37:22;-4.60;1.00
8487;DHT22;4280;50.534;8.708;2022-12-17T15:39:53;-4.70;1.00
8487;DHT22;4280;50.534;8.708;2022-12-17T15:42:24;-4.60;1.00
8487;DHT22;4280;50.534;8.708;2022-12-17T15:45:07;-4.50;1.00
8487;DHT22;4280;50.534;8.708;2022-12-17T15:47:37;-4.50;1.00
8487;DHT22;4280;50.534;8.708;2022-12-17T15:50:08;-4.40;1.00
8487;DHT22;4280;50.534;8.708;2022-12-17T15:52:41;-4.50;1.00
8487;DHT22;4280;50.534;8.708;2022-12-17T15:55:11;-4.40;1.00
8487;DHT22;4280;50.534;8.708;2022-12-17T15:57:41;-4.50;1.00
8487;DHT22;4280;50.534;8.708;2022-12-17T16:00:11;-4.50;1.00
8487;DHT22;4280;50.534;8.708;2022-12-17T16:02:43;-4.50;1.00
8487;DHT22;4280;50.534;8.708;2022-12-17T16:05:14;-4.60;1.00
8487;DHT22;4280;50.534;8.708;2022-12-17T16:07:49;-4.60;1.00
8487;DHT22;4280;50.534;8.708;2022-12-17T16:10:20;-4.50;1.00
8487;DHT22;4280;50.534;8.708;2022-12-17T16:12:54;-4.40;1.00
8487;DHT22;4280;50.534;8.708;2022-12-17T16:15:31;-4.40;1.00
8487;DHT22;4280;50.534;8.708;2022-12-17T16:18:06;-4.40;1.00
8487;DHT22;4280;50.534;8.708;2022-12-17T16:20:39;-4.40;1.00
8487;DHT22;4280;50.534;8.708;2022-12-17T16:23:17;-4.50;1.00
8487;DHT22;4280;50.534;8.708;2022-12-17T16:25:54;-4.60;1.00
8487;DHT22;4280;50.534;8.708;2022-12-17T16:28:29;-4.80;1.00
8487;DHT22;4280;50.534;8.708;2022-12-17T16:31:05;-4.90;1.00
8487;DHT22;4280;50.534;8.708;2022-12-17T16:33:41;-5.00;1.00
8487;DHT22;4280;50.534;8.708;2022-12-17T16:36:17;-5.20;1.00
8487;DHT22;4280;50.534;8.708;2022-12-17T16:38:58;-5.20;1.00
8487;DHT22;4280;50.534;8.708;2022-12-17T16:41:35;-5.20;1.00
8487;DHT22;4280;50.534;8.708;2022-12-17T16:44:10;-5.20;1.00
8487;DHT22;4280;50.534;8.708;2022-12-17T16:46:47;-5.10;1.00
8487;DHT22;4280;50.534;8.708;2022-12-17T16:49:21;-4.90;1.00
8487;DHT22;4280;50.534;8.708;2022-12-17T16:51:55;-4.80;1.00
8487;DHT22;4280;50.534;8.708;2022-12-17T16:54:35;-4.80;1.00
8487;DHT22;4280;50.534;8.708;2022-12-17T16:57:10;-4.90;1.00
8487;DHT22;4280;50.534;8.708;2022-12-17T16:59:45;-4.90;1.00
8487;DHT22;4280;50.534;8.708;2022-12-17T17:02:22;-5.00;1.00
8487;DHT22;4280;50.534;8.708;2022-12-17T17:04:56;-5.10;1.00
8487;DHT22;4280;50.534;8.708;2022-12-17T17:07:32;-5.20;1.00
8487;DHT22;4280;50.534;8.708;2022-12-17T17:10:15;-5.20;1.00
8487;DHT22;4280;50.534;8.708;2022-12-17T17:12:50;-5.20;1.00
8487;DHT22;4280;50.534;8.708;2022-12-17T17:15:24;-5.20;1.00
8487;DHT22;4280;50.534;8.708;2022-12-17T17:18:01;-5.20;1.00
8487;DHT22;4280;50.534;8.708;2022-12-17T17:20:38;-5.30;1.00
8487;DHT22;4280;50.534;8.708;2022-12-17T17:23:15;-5.20;1.00
8487;DHT22;4280;50.534;8.708;2022-12-17T17:25:51;-5.20;1.00
8487;DHT22;4280;50.534;8.708;2022-12-17T17:28:24;-5.40;1.00
8487;DHT22;4280;50.534;8.708;2022-12-17T17:30:58;-5.40;1.00
8487;DHT22;4280;50.534;8.708;2022-12-17T17:33:36;-5.50;1.00
8487;DHT22;4280;50.534;8.708;2022-12-17T17:36:15;-5.70;1.00
8487;DHT22;4280;50.534;8.708;2022-12-17T17:38:53;-5.80;1.00
8487;DHT22;4280;50.534;8.708;2022-12-17T17:41:35;-5.90;1.00
8487;DHT22;4280;50.534;8.708;2022-12-17T17:44:13;-6.00;1.00
8487;DHT22;4280;50.534;8.708;2022-12-17T17:46:51;-6.10;1.00
8487;DHT22;4280;50.534;8.708;2022-12-17T17:49:28;-6.10;1.00
8487;DHT22;4280;50.534;8.708;2022-12-17T17:52:04;-6.10;1.00
8487;DHT22;4280;50.534;8.708;2022-12-17T17:57:42;-6.00;1.00
8487;DHT22;4280;50.534;8.708;2022-12-17T18:00:16;-6.00;1.00
8487;DHT22;4280;50.534;8.708;2022-12-17T18:02:51;-6.00;1.00
8487;DHT22;4280;50.534;8.708;2022-12-17T18:05:28;-6.00;1.00
8487;DHT22;4280;50.534;8.708;2022-12-17T18:08:07;-6.00;1.00
8487;DHT22;4280;50.534;8.708;2022-12-17T18:10:42;-6.00;1.00
8487;DHT22;4280;50.534;8.708;2022-12-17T18:13:31;-6.10;1.00
8487;DHT22;4280;50.534;8.708;2022-12-17T18:16:20;-6.20;1.00
8487;DHT22;4280;50.534;8.708;2022-12-17T18:18:57;-6.20;1.00
8487;DHT22;4280;50.534;8.708;2022-12-17T18:21:33;-6.20;1.00